createdAt,value
2023-05-14T00:01:04.185Z,11.2740
2023-05-14T00:02:12.333Z,11.2753
2023-05-14T00:03:20.506Z,11.2768
2023-05-14T00:04:28.275Z,11.2940
2023-05-14T00:05:36.323Z,11.2419
2023-05-14T00:06:44.457Z,11.2312
2023-05-14T00:07:52.611Z,11.2221
2023-05-14T00:09:00.629Z,11.2062
2023-05-14T00:10:08.724Z,11.0723
2023-05-14T00:11:16.771Z,11.0655
2023-05-14T00:12:24.841Z,11.0733
2023-05-14T00:13:33.108Z,11.0403
2023-05-14T00:14:41.098Z,11.0641
2023-05-14T00:15:49.067Z,11.1391
2023-05-14T00:16:57.226Z,11.1107
2023-05-14T00:18:05.340Z,11.1359
2023-05-14T00:19:13.136Z,11.0186
2023-05-14T00:20:21.322Z,10.9671
2023-05-14T00:21:29.217Z,11.0683
2023-05-14T00:22:37.414Z,11.1155
2023-05-14T00:23:45.647Z,11.0884
2023-05-14T00:24:53.544Z,11.1025
2023-05-14T00:26:01.569Z,11.0975
2023-05-14T00:27:09.662Z,11.0855
2023-05-14T00:28:17.779Z,11.1330
2023-05-14T00:29:25.883Z,11.1563
2023-05-14T00:30:33.961Z,11.0779
2023-05-14T00:31:41.913Z,11.0744
2023-05-14T00:32:50.025Z,11.0352
2023-05-14T00:33:57.879Z,11.0508
2023-05-14T00:35:05.984Z,11.0355
2023-05-14T00:36:14.005Z,11.0151
2023-05-14T00:37:22.188Z,10.9501
2023-05-14T00:38:30.233Z,10.9428
2023-05-14T00:39:38.447Z,10.8984
2023-05-14T00:40:46.426Z,10.8623
2023-05-14T00:41:54.445Z,10.9020
2023-05-14T00:43:02.511Z,10.9434
2023-05-14T00:44:10.524Z,10.8772
2023-05-14T00:45:18.616Z,10.8582
2023-05-14T00:46:26.850Z,10.7449
2023-05-14T00:47:34.981Z,10.6930
2023-05-14T00:48:42.656Z,10.5904
2023-05-14T00:49:50.759Z,10.6750
2023-05-14T00:50:58.779Z,10.7323
2023-05-14T00:52:07.014Z,10.7733
2023-05-14T00:53:15.016Z,10.7521
2023-05-14T00:54:23.096Z,10.8126
2023-05-14T00:55:31.260Z,10.8194
2023-05-14T00:56:39.305Z,10.8891
2023-05-14T00:57:47.300Z,10.9066
2023-05-14T00:58:55.302Z,10.9241
2023-05-14T01:00:03.429Z,10.8847
2023-05-14T01:01:11.600Z,10.8726
2023-05-14T01:02:19.553Z,10.9108
2023-05-14T01:03:27.632Z,10.9474
2023-05-14T01:04:35.494Z,10.9430
2023-05-14T01:05:43.571Z,10.9751
2023-05-14T01:06:51.740Z,10.9850
2023-05-14T01:07:59.921Z,10.9720
2023-05-14T01:09:07.952Z,10.9066
2023-05-14T01:10:15.942Z,10.9268
2023-05-14T01:11:24.136Z,10.8683
2023-05-14T01:12:32.068Z,10.9003
2023-05-14T01:13:40.108Z,10.9188
2023-05-14T01:14:48.235Z,10.9177
2023-05-14T01:15:56.217Z,10.9211
2023-05-14T01:17:04.321Z,10.8583
2023-05-14T01:18:12.368Z,10.8633
2023-05-14T01:19:20.269Z,10.9261
2023-05-14T01:20:28.384Z,10.9179
2023-05-14T01:21:36.518Z,10.9423
2023-05-14T01:22:44.595Z,10.8583
2023-05-14T01:23:52.722Z,10.8593
2023-05-14T01:25:00.721Z,10.8986
2023-05-14T01:26:08.835Z,10.7822
2023-05-14T01:27:16.863Z,10.7553
2023-05-14T01:28:24.891Z,10.7981
2023-05-14T01:29:32.968Z,10.8192
2023-05-14T01:30:41.026Z,10.8463
2023-05-14T01:31:49.162Z,10.8473
2023-05-14T01:32:57.085Z,10.8681
2023-05-14T01:34:05.057Z,10.9131
2023-05-14T01:35:13.185Z,10.8936
2023-05-14T01:36:21.445Z,10.9642
2023-05-14T01:37:29.581Z,10.9941
2023-05-14T01:38:37.508Z,11.0182
2023-05-14T01:39:45.473Z,11.0043
2023-05-14T01:40:53.553Z,11.0662
2023-05-14T01:42:01.684Z,11.0277
2023-05-14T01:43:09.750Z,11.0182
2023-05-14T01:44:17.753Z,11.0373
2023-05-14T01:45:25.846Z,10.9882
2023-05-14T01:46:34.042Z,10.9810
2023-05-14T01:47:41.805Z,11.0001
2023-05-14T01:48:49.859Z,10.9760
2023-05-14T01:49:57.920Z,10.9804
2023-05-14T01:51:06.098Z,11.0096
2023-05-14T01:52:14.247Z,11.0453
2023-05-14T01:53:22.205Z,11.0722
2023-05-14T01:54:30.316Z,11.0090
2023-05-14T01:55:38.307Z,11.0332
2023-05-14T01:56:46.387Z,11.0664
2023-05-14T01:57:54.436Z,11.0855
2023-05-14T01:59:02.654Z,11.1166
2023-05-14T02:00:10.678Z,11.1067
2023-05-14T02:01:18.710Z,11.0060
2023-05-14T02:02:26.591Z,10.9550
2023-05-14T02:03:34.651Z,10.9358
2023-05-14T02:04:42.709Z,10.9823
2023-05-14T02:05:50.944Z,11.0329
2023-05-14T02:06:58.940Z,11.0325
2023-05-14T02:08:07.125Z,11.0792
2023-05-14T02:09:15.072Z,11.0994
2023-05-14T02:10:23.274Z,11.0512
2023-05-14T02:11:31.239Z,10.9974
2023-05-14T02:12:39.238Z,10.9856
2023-05-14T02:13:47.330Z,11.0050
2023-05-14T02:14:55.425Z,10.9829
2023-05-14T02:16:03.658Z,10.8417
2023-05-14T02:17:11.400Z,10.9383
2023-05-14T02:18:19.401Z,10.9865
2023-05-14T02:19:27.514Z,10.9957
2023-05-14T02:20:35.700Z,10.9480
2023-05-14T02:21:43.731Z,10.8465
2023-05-14T02:22:51.840Z,10.8807
2023-05-14T02:23:59.984Z,10.8435
2023-05-14T02:25:07.922Z,10.8511
2023-05-14T02:26:15.995Z,10.8082
2023-05-14T02:27:24.062Z,10.8593
2023-05-14T02:28:32.155Z,10.8553
2023-05-14T02:29:40.232Z,10.9018
2023-05-14T02:30:48.235Z,10.9432
2023-05-14T02:31:56.213Z,10.9467
2023-05-14T02:33:04.341Z,10.9781
2023-05-14T02:34:12.361Z,11.0189
2023-05-14T02:35:20.465Z,11.0079
2023-05-14T02:36:28.515Z,11.0405
2023-05-14T02:37:36.613Z,11.0495
2023-05-14T02:38:44.674Z,11.0506
2023-05-14T02:39:52.876Z,11.0474
2023-05-14T02:41:00.763Z,11.0779
2023-05-14T02:42:08.860Z,11.0632
2023-05-14T02:43:16.893Z,11.0731
2023-05-14T02:44:24.948Z,11.0603
2023-05-14T02:45:33.038Z,11.0044
2023-05-14T02:46:40.958Z,11.0210
2023-05-14T02:47:49.036Z,11.0008
2023-05-14T02:48:57.024Z,10.9810
2023-05-14T02:50:05.217Z,10.9945
2023-05-14T02:51:13.388Z,10.9724
2023-05-14T02:52:21.370Z,10.9404
2023-05-14T02:53:29.410Z,10.8990
2023-05-14T02:54:37.513Z,10.8873
2023-05-14T02:55:45.661Z,10.8814
2023-05-14T02:56:53.707Z,10.8093
2023-05-14T02:58:01.639Z,10.7901
2023-05-14T02:59:09.676Z,10.7853
2023-05-14T03:00:17.640Z,10.7473
2023-05-14T03:01:25.779Z,10.7500
2023-05-14T03:02:33.907Z,10.7933
2023-05-14T03:03:41.957Z,10.8053
2023-05-14T03:04:50.216Z,10.7851
2023-05-14T03:05:58.071Z,10.8128
2023-05-14T03:07:06.136Z,10.7885
2023-05-14T03:08:14.229Z,10.7813
2023-05-14T03:09:22.308Z,10.7725
2023-05-14T03:10:30.292Z,10.7510
2023-05-14T03:11:38.485Z,10.7040
2023-05-14T03:12:46.487Z,10.7132
2023-05-14T03:13:54.521Z,10.6478
2023-05-14T03:15:02.415Z,10.6394
2023-05-14T03:16:10.460Z,10.6722
2023-05-14T03:17:18.543Z,10.6619
2023-05-14T03:18:26.751Z,10.6481
2023-05-14T03:19:34.841Z,10.6466
2023-05-14T03:20:42.691Z,10.6438
2023-05-14T03:21:50.849Z,10.6718
2023-05-14T03:22:58.954Z,10.6695
2023-05-14T03:24:06.998Z,10.6411
2023-05-14T03:25:15.083Z,10.6508
2023-05-14T03:26:23.105Z,10.6409
2023-05-14T03:27:31.120Z,10.6663
2023-05-14T03:28:39.191Z,10.6476
2023-05-14T03:29:47.110Z,10.6497
2023-05-14T03:30:55.258Z,10.6335
2023-05-14T03:32:03.259Z,10.5236
2023-05-14T03:33:11.671Z,10.5461
2023-05-14T03:34:19.473Z,10.5627
2023-05-14T03:35:27.551Z,10.5450
2023-05-14T03:36:35.721Z,10.5785
2023-05-14T03:37:43.663Z,10.5373
2023-05-14T03:38:51.731Z,10.5150
2023-05-14T03:39:59.741Z,10.4809
2023-05-14T03:41:07.814Z,10.4231
2023-05-14T03:42:15.951Z,10.4116
2023-05-14T03:43:23.921Z,10.2898
2023-05-14T03:44:31.861Z,10.3327
2023-05-14T03:45:39.895Z,10.3678
2023-05-14T03:46:47.975Z,10.3805
2023-05-14T03:47:56.403Z,10.3824
2023-05-14T03:49:04.360Z,10.4027
2023-05-14T03:50:12.293Z,10.3796
2023-05-14T03:51:20.399Z,10.3569
2023-05-14T03:52:28.637Z,10.3853
2023-05-14T03:53:36.481Z,10.3794
2023-05-14T03:54:44.538Z,10.3596
2023-05-14T03:55:52.545Z,10.4141
2023-05-14T03:57:00.854Z,10.4471
2023-05-14T03:58:08.729Z,10.4660
2023-05-14T03:59:16.655Z,10.4719
2023-05-14T04:00:24.885Z,10.4618
2023-05-14T04:01:32.721Z,10.4957
2023-05-14T04:02:41.101Z,10.4950
2023-05-14T04:03:49.160Z,10.5200
2023-05-14T04:04:57.089Z,10.5352
2023-05-14T04:06:05.294Z,10.5661
2023-05-14T04:07:13.110Z,10.5814
2023-05-14T04:08:21.151Z,10.5755
2023-05-14T04:09:29.232Z,10.5705
2023-05-14T04:10:37.309Z,10.5596
2023-05-14T04:11:45.475Z,10.6066
2023-05-14T04:12:53.497Z,10.6508
2023-05-14T04:14:01.425Z,10.6462
2023-05-14T04:15:09.499Z,10.5946
2023-05-14T04:16:17.657Z,10.6010
2023-05-14T04:17:25.904Z,10.5841
2023-05-14T04:18:33.985Z,10.5844
2023-05-14T04:19:41.857Z,10.5801
2023-05-14T04:20:49.915Z,10.5543
2023-05-14T04:21:57.881Z,10.4702
2023-05-14T04:23:06.022Z,10.4847
2023-05-14T04:24:14.138Z,10.5516
2023-05-14T04:25:22.270Z,10.5673
2023-05-14T04:26:30.194Z,10.5246
2023-05-14T04:27:38.333Z,10.5917
2023-05-14T04:28:46.208Z,10.6560
2023-05-14T04:29:54.248Z,10.6731
2023-05-14T04:31:02.338Z,10.6970
2023-05-14T04:32:10.498Z,10.7382
2023-05-14T04:33:18.596Z,10.7784
2023-05-14T04:34:26.834Z,10.7876
2023-05-14T04:35:34.672Z,10.7912
2023-05-14T04:36:42.830Z,10.7782
2023-05-14T04:37:50.769Z,10.8124
2023-05-14T04:38:58.966Z,10.8572
2023-05-14T04:40:06.947Z,10.9560
2023-05-14T04:41:14.967Z,11.0010
2023-05-14T04:42:23.119Z,11.0407
2023-05-14T04:43:30.961Z,11.0313
2023-05-14T04:44:39.045Z,11.0186
2023-05-14T04:45:47.067Z,11.0514
2023-05-14T04:46:55.290Z,11.1074
2023-05-14T04:48:03.343Z,11.1134
2023-05-14T04:49:11.445Z,11.1217
2023-05-14T04:50:19.582Z,11.1498
2023-05-14T04:51:27.494Z,11.1502
2023-05-14T04:52:35.558Z,11.1641
2023-05-14T04:53:43.622Z,11.2160
2023-05-14T04:54:51.695Z,11.2604
2023-05-14T04:55:59.803Z,11.2415
2023-05-14T04:57:07.783Z,11.1486
2023-05-14T04:58:15.722Z,11.1206
2023-05-14T04:59:23.772Z,11.1828
2023-05-14T05:00:31.853Z,11.1650
2023-05-14T05:01:40.160Z,11.2427
2023-05-14T05:02:48.106Z,11.2644
2023-05-14T05:03:56.261Z,11.3005
2023-05-14T05:05:04.277Z,11.3119
2023-05-14T05:06:12.546Z,11.3838
2023-05-14T05:07:20.447Z,11.4117
2023-05-14T05:08:28.375Z,11.4496
2023-05-14T05:09:36.449Z,11.4851
2023-05-14T05:10:44.569Z,11.4498
2023-05-14T05:11:52.556Z,11.5151
2023-05-14T05:13:00.576Z,11.6438
2023-05-14T05:14:08.569Z,11.7006
2023-05-14T05:15:16.611Z,11.7485
2023-05-14T05:16:24.857Z,11.7870
2023-05-14T05:17:32.925Z,11.6335
2023-05-14T05:18:41.092Z,11.5364
2023-05-14T05:19:48.979Z,11.6047
2023-05-14T05:20:57.140Z,11.7321
2023-05-14T05:22:05.257Z,11.8155
2023-05-14T05:23:13.048Z,11.8420
2023-05-14T05:24:21.308Z,11.8996
2023-05-14T05:25:29.505Z,11.9084
2023-05-14T05:26:37.332Z,11.9579
2023-05-14T05:27:45.313Z,11.9948
2023-05-14T05:28:53.292Z,12.0630
2023-05-14T05:30:01.439Z,12.0638
2023-05-14T05:31:09.558Z,12.0810
2023-05-14T05:32:17.633Z,12.1023
2023-05-14T05:33:25.685Z,12.1039
2023-05-14T05:34:33.720Z,12.0815
2023-05-14T05:35:41.940Z,12.0064
2023-05-14T05:36:49.864Z,11.9019
2023-05-14T05:38:00.528Z,12.0859
2023-05-14T05:39:10.932Z,12.1680
2023-05-14T05:40:18.948Z,12.2580
2023-05-14T05:41:26.890Z,12.2128
2023-05-14T05:42:34.874Z,12.2490
2023-05-14T05:43:42.944Z,12.1767
2023-05-14T05:44:51.134Z,12.2477
2023-05-14T05:45:59.158Z,12.3360
2023-05-14T05:47:07.451Z,12.2940
2023-05-14T05:48:15.312Z,12.2900
2023-05-14T05:49:23.477Z,12.4106
2023-05-14T05:50:31.389Z,12.4245
2023-05-14T05:51:39.471Z,12.4903
2023-05-14T05:52:47.573Z,12.4985
2023-05-14T05:53:55.604Z,12.5542
2023-05-14T05:55:03.790Z,12.5237
2023-05-14T05:56:11.566Z,12.5164
2023-05-14T05:57:19.638Z,12.3974
2023-05-14T05:58:27.768Z,12.2719
2023-05-14T05:59:35.871Z,12.4499
2023-05-14T06:00:44.022Z,12.5694
2023-05-14T06:01:52.086Z,12.6436
2023-05-14T06:03:00.312Z,12.4428
2023-05-14T06:04:08.170Z,12.3165
2023-05-14T06:05:16.303Z,12.4178
2023-05-14T06:06:24.224Z,12.5281
2023-05-14T06:07:32.299Z,12.6286
2023-05-14T06:08:40.396Z,12.6080
2023-05-14T06:09:48.456Z,12.6765
2023-05-14T06:10:56.362Z,12.6644
2023-05-14T06:12:04.378Z,12.7547
2023-05-14T06:13:12.432Z,12.7743
2023-05-14T06:14:20.626Z,12.7734
2023-05-14T06:15:28.801Z,12.5824
2023-05-14T06:16:36.766Z,12.6562
2023-05-14T06:17:44.836Z,12.6055
2023-05-14T06:18:53.047Z,12.6545
2023-05-14T06:20:00.925Z,12.6580
2023-05-14T06:21:09.013Z,12.6459
2023-05-14T06:22:17.036Z,12.6396
2023-05-14T06:23:25.091Z,12.5279
2023-05-14T06:24:33.045Z,12.5002
2023-05-14T06:25:41.083Z,12.5462
2023-05-14T06:26:49.183Z,12.5735
2023-05-14T06:27:57.176Z,12.5624
2023-05-14T06:29:05.386Z,12.6145
2023-05-14T06:30:13.401Z,12.6015
2023-05-14T06:31:21.544Z,12.5254
2023-05-14T06:32:29.609Z,12.5061
2023-05-14T06:33:37.662Z,12.5366
2023-05-14T06:34:45.784Z,12.5046
2023-05-14T06:35:53.937Z,12.5647
2023-05-14T06:37:01.830Z,12.6135
2023-05-14T06:38:10.000Z,12.6738
2023-05-14T06:39:17.908Z,12.7692
2023-05-14T06:40:25.966Z,12.7821
2023-05-14T06:41:33.874Z,12.7774
2023-05-14T06:42:41.949Z,12.7419
2023-05-14T06:43:50.164Z,12.6675
2023-05-14T06:44:58.230Z,12.6435
2023-05-14T06:46:06.270Z,12.6061
2023-05-14T06:47:14.356Z,12.6261
2023-05-14T06:48:22.428Z,12.6862
2023-05-14T06:49:30.467Z,12.7707
2023-05-14T06:50:38.619Z,12.7169
2023-05-14T06:51:46.565Z,12.7358
2023-05-14T06:52:54.609Z,12.7449
2023-05-14T06:54:02.694Z,12.8025
2023-05-14T06:55:10.632Z,12.7594
2023-05-14T06:56:18.655Z,12.8453
2023-05-14T06:57:26.721Z,12.8525
2023-05-14T06:58:34.959Z,12.8523
2023-05-14T06:59:42.982Z,12.8971
2023-05-14T07:00:51.071Z,12.8514
2023-05-14T07:01:59.161Z,12.8649
2023-05-14T07:03:07.213Z,12.9141
2023-05-14T07:04:15.267Z,12.6642
2023-05-14T07:05:23.220Z,12.7663
2023-05-14T07:06:31.392Z,12.8062
2023-05-14T07:07:39.517Z,12.9029
2023-05-14T07:08:47.389Z,12.8889
2023-05-14T07:09:55.380Z,12.8264
2023-05-14T07:11:03.445Z,12.8886
2023-05-14T07:12:11.563Z,12.8762
2023-05-14T07:13:19.688Z,12.8969
2023-05-14T07:14:27.692Z,12.8390
2023-05-14T07:15:35.769Z,12.8451
2023-05-14T07:16:43.882Z,12.8338
2023-05-14T07:17:51.994Z,12.7764
2023-05-14T07:18:59.976Z,12.7186
2023-05-14T07:20:08.046Z,12.7260
2023-05-14T07:21:16.066Z,12.7098
2023-05-14T07:22:24.131Z,12.7947
2023-05-14T07:23:32.196Z,12.8449
2023-05-14T07:24:40.151Z,12.9212
2023-05-14T07:25:48.206Z,12.9650
2023-05-14T07:26:56.285Z,13.0333
2023-05-14T07:28:04.429Z,12.9649
2023-05-14T07:29:12.522Z,13.0888
2023-05-14T07:30:20.541Z,13.2872
2023-05-14T07:31:28.673Z,13.3698
2023-05-14T07:32:36.657Z,13.5563
2023-05-14T07:33:44.666Z,13.6261
2023-05-14T07:34:52.858Z,13.6563
2023-05-14T07:36:00.804Z,13.9370
2023-05-14T07:37:08.883Z,13.9569
2023-05-14T07:38:17.020Z,13.8680
2023-05-14T07:39:24.955Z,14.0540
2023-05-14T07:40:33.121Z,14.3759
2023-05-14T07:41:41.027Z,14.4875
2023-05-14T07:42:49.200Z,14.4682
2023-05-14T07:43:57.618Z,14.4232
2023-05-14T07:45:05.381Z,14.4814
2023-05-14T07:46:13.440Z,14.4221
2023-05-14T07:47:21.443Z,14.3036
2023-05-14T07:48:29.520Z,14.3692
2023-05-14T07:49:37.554Z,14.6212
2023-05-14T07:50:45.630Z,14.7879
2023-05-14T07:51:53.709Z,14.8976
2023-05-14T07:53:01.770Z,15.1303
2023-05-14T07:54:09.680Z,15.3538
2023-05-14T07:55:17.728Z,15.5358
2023-05-14T07:56:25.788Z,15.6556
2023-05-14T07:57:34.178Z,15.8204
2023-05-14T07:58:41.973Z,15.9976
2023-05-14T07:59:50.154Z,15.6024
2023-05-14T08:00:58.099Z,15.4031
2023-05-14T08:02:06.185Z,15.5066
2023-05-14T08:03:14.415Z,15.6159
2023-05-14T08:04:22.414Z,15.6348
2023-05-14T08:05:30.337Z,15.5434
2023-05-14T08:06:38.498Z,15.2465
2023-05-14T08:07:46.501Z,15.5287
2023-05-14T08:08:54.452Z,15.6581
2023-05-14T08:10:02.478Z,15.7496
2023-05-14T08:11:10.610Z,15.6642
2023-05-14T08:12:18.702Z,15.4082
2023-05-14T08:13:26.917Z,15.4032
2023-05-14T08:14:34.863Z,15.3992
2023-05-14T08:15:42.968Z,15.4628
2023-05-14T08:16:51.040Z,15.3205
2023-05-14T08:17:59.017Z,15.1728
2023-05-14T08:19:07.107Z,14.8474
2023-05-14T08:20:15.343Z,14.6041
2023-05-14T08:21:23.257Z,14.6914
2023-05-14T08:22:31.341Z,14.7517
2023-05-14T08:23:39.260Z,14.9224
2023-05-14T08:24:47.314Z,14.9758
2023-05-14T08:25:55.406Z,14.8997
2023-05-14T08:27:03.412Z,15.1787
2023-05-14T08:28:11.623Z,15.0845
2023-05-14T08:29:19.656Z,15.1915
2023-05-14T08:30:27.891Z,15.2819
2023-05-14T08:31:35.821Z,15.4998
2023-05-14T08:32:43.868Z,15.5516
2023-05-14T08:33:51.890Z,15.6796
2023-05-14T08:34:59.957Z,15.7475
2023-05-14T08:36:08.072Z,15.8402
2023-05-14T08:37:16.139Z,15.6754
2023-05-14T08:38:23.984Z,15.5944
2023-05-14T08:39:32.080Z,15.5827
2023-05-14T08:40:40.107Z,15.4906
2023-05-14T08:41:48.298Z,15.3700
2023-05-14T08:42:56.456Z,15.4092
2023-05-14T08:44:04.413Z,15.2651
2023-05-14T08:45:12.476Z,15.2712
2023-05-14T08:46:20.550Z,15.0452
2023-05-14T08:47:28.626Z,15.3021
2023-05-14T08:48:36.728Z,15.5595
2023-05-14T08:49:44.705Z,15.7653
2023-05-14T08:50:52.733Z,15.8955
2023-05-14T08:52:00.813Z,15.9053
2023-05-14T08:53:08.753Z,15.9547
2023-05-14T08:54:16.846Z,16.0138
2023-05-14T08:55:24.836Z,16.2780
2023-05-14T08:56:33.070Z,16.4183
2023-05-14T08:57:41.106Z,16.6652
2023-05-14T08:58:49.132Z,16.9368
2023-05-14T08:59:57.272Z,17.2282
2023-05-14T09:01:05.224Z,17.4411
2023-05-14T09:02:13.347Z,17.5412
2023-05-14T09:03:21.423Z,17.4771
2023-05-14T09:04:29.414Z,17.5546
2023-05-14T09:05:37.553Z,17.4258
2023-05-14T09:06:45.497Z,17.2505
2023-05-14T09:07:53.480Z,17.1208
2023-05-14T09:09:01.547Z,16.8464
2023-05-14T09:10:09.564Z,16.6491
2023-05-14T09:11:17.980Z,16.2835
2023-05-14T09:12:25.766Z,16.2236
2023-05-14T09:13:33.827Z,16.3852
2023-05-14T09:14:41.956Z,16.3913
2023-05-14T09:15:49.997Z,16.6163
2023-05-14T09:16:58.061Z,16.5603
2023-05-14T09:18:06.303Z,16.5942
2023-05-14T09:19:14.198Z,16.7693
2023-05-14T09:20:22.718Z,16.7554
2023-05-14T09:21:32.178Z,16.8183
2023-05-14T09:22:43.104Z,16.8028
2023-05-14T09:23:51.274Z,16.8525
2023-05-14T09:24:59.276Z,16.8920
2023-05-14T09:26:07.534Z,16.9625
2023-05-14T09:27:15.410Z,16.9473
2023-05-14T09:28:23.420Z,16.8820
2023-05-14T09:29:31.527Z,16.4964
2023-05-14T09:30:39.618Z,16.1982
2023-05-14T09:31:47.694Z,16.4573
2023-05-14T09:32:55.813Z,16.4176
2023-05-14T09:34:03.826Z,16.4733
2023-05-14T09:35:11.757Z,16.6051
2023-05-14T09:36:19.824Z,16.6650
2023-05-14T09:37:27.855Z,16.5034
2023-05-14T09:38:35.980Z,16.3590
2023-05-14T09:39:44.094Z,16.4998
2023-05-14T09:40:52.189Z,16.4393
2023-05-14T09:42:00.200Z,16.6064
2023-05-14T09:43:08.264Z,16.5973
2023-05-14T09:44:16.343Z,16.7508
2023-05-14T09:45:24.451Z,16.9021
2023-05-14T09:46:32.415Z,17.0045
2023-05-14T09:47:40.564Z,17.1157
2023-05-14T09:48:48.506Z,17.4161
2023-05-14T09:49:56.517Z,17.6148
2023-05-14T09:51:04.910Z,17.3308
2023-05-14T09:52:12.638Z,17.5101
2023-05-14T09:53:20.846Z,17.3806
2023-05-14T09:54:28.877Z,17.7693
2023-05-14T09:55:36.911Z,18.2000
2023-05-14T09:56:45.007Z,18.3362
2023-05-14T09:57:53.040Z,18.5727
2023-05-14T09:59:01.132Z,18.7953
2023-05-14T10:00:09.056Z,18.8857
2023-05-14T10:01:17.254Z,18.8756
2023-05-14T10:02:25.553Z,18.5960
2023-05-14T10:03:33.253Z,18.0362
2023-05-14T10:04:41.310Z,17.5031
2023-05-14T10:05:49.367Z,17.0577
2023-05-14T10:06:57.559Z,16.6297
2023-05-14T10:08:05.601Z,16.5770
2023-05-14T10:09:13.673Z,16.6121
2023-05-14T10:10:21.959Z,16.3998
2023-05-14T10:11:29.804Z,16.3461
2023-05-14T10:12:37.857Z,16.2513
2023-05-14T10:13:46.082Z,16.0210
2023-05-14T10:14:53.977Z,16.3127
2023-05-14T10:16:02.045Z,16.3400
2023-05-14T10:17:10.246Z,16.2648
2023-05-14T10:18:18.149Z,16.4534
2023-05-14T10:19:26.225Z,16.4401
2023-05-14T10:20:34.103Z,16.6263
2023-05-14T10:21:42.315Z,16.7064
2023-05-14T10:22:50.360Z,16.7636
2023-05-14T10:23:58.493Z,16.5328
2023-05-14T10:25:06.526Z,16.7464
2023-05-14T10:26:14.560Z,17.0506
2023-05-14T10:27:22.645Z,17.2778
2023-05-14T10:28:30.687Z,17.2519
2023-05-14T10:29:38.826Z,17.2757
2023-05-14T10:30:46.850Z,17.4300
2023-05-14T10:31:54.820Z,17.5000
2023-05-14T10:33:02.792Z,17.7676
2023-05-14T10:34:10.839Z,17.9053
2023-05-14T10:35:18.914Z,18.0165
2023-05-14T10:36:27.104Z,17.9652
2023-05-14T10:37:35.150Z,17.9324
2023-05-14T10:38:43.331Z,17.9010
2023-05-14T10:39:51.259Z,17.9351
2023-05-14T10:40:59.302Z,18.0341
2023-05-14T10:42:07.496Z,17.9721
2023-05-14T10:43:15.420Z,18.0142
2023-05-14T10:44:23.688Z,17.7787
2023-05-14T10:45:31.569Z,17.8187
2023-05-14T10:46:39.718Z,17.8157
2023-05-14T10:47:47.619Z,17.7981
2023-05-14T10:48:55.582Z,17.9124
2023-05-14T10:50:03.656Z,18.0459
2023-05-14T10:51:11.938Z,17.6250
2023-05-14T10:52:19.912Z,17.6499
2023-05-14T10:53:28.039Z,17.8279
2023-05-14T10:54:36.164Z,18.3185
2023-05-14T10:55:44.067Z,18.7814
2023-05-14T10:56:52.136Z,19.4225
2023-05-14T10:58:00.223Z,20.0715
2023-05-14T10:59:08.276Z,20.4345
2023-05-14T11:00:16.317Z,20.4921
2023-05-14T11:01:24.433Z,20.8223
2023-05-14T11:02:32.334Z,22.0468
2023-05-14T11:03:40.395Z,22.9868
2023-05-14T11:04:48.473Z,23.2208
2023-05-14T11:05:56.826Z,22.9648
2023-05-14T11:07:04.701Z,22.5559
2023-05-14T11:08:12.763Z,22.6667
2023-05-14T11:09:20.796Z,23.1661
2023-05-14T11:10:28.987Z,23.3736
2023-05-14T11:11:36.928Z,23.6378
2023-05-14T11:12:44.977Z,23.9735
2023-05-14T11:13:52.989Z,24.5100
2023-05-14T11:15:01.083Z,24.6714
2023-05-14T11:16:21.977Z,24.4818
2023-05-14T11:17:21.941Z,24.0609
2023-05-14T11:18:30.067Z,22.8344
2023-05-14T11:19:38.066Z,22.3553
2023-05-14T11:20:46.240Z,21.9890
2023-05-14T11:21:54.361Z,21.1538
2023-05-14T11:23:02.373Z,20.7294
2023-05-14T11:24:10.416Z,20.1545
2023-05-14T11:25:18.455Z,19.5827
2023-05-14T11:26:26.685Z,19.0597
2023-05-14T11:27:34.666Z,18.5687
2023-05-14T11:28:42.629Z,18.1941
2023-05-14T11:29:50.802Z,17.8352
2023-05-14T11:30:58.763Z,17.5998
2023-05-14T11:32:06.759Z,17.3974
2023-05-14T11:33:14.880Z,17.1260
2023-05-14T11:34:22.850Z,16.8143
2023-05-14T11:35:31.024Z,16.6591
2023-05-14T11:36:39.045Z,16.4483
2023-05-14T11:37:47.098Z,16.4450
2023-05-14T11:38:55.223Z,16.4325
2023-05-14T11:40:03.345Z,16.3432
2023-05-14T11:41:11.288Z,16.4561
2023-05-14T11:42:19.532Z,16.4924
2023-05-14T11:43:27.439Z,16.5509
2023-05-14T11:44:35.498Z,16.7579
2023-05-14T11:45:43.536Z,16.9249
2023-05-14T11:46:51.429Z,17.1180
2023-05-14T11:47:59.508Z,17.3600
2023-05-14T11:49:07.553Z,17.3038
2023-05-14T11:50:15.857Z,17.4573
2023-05-14T11:51:23.807Z,17.6036
2023-05-14T11:52:31.854Z,17.6751
2023-05-14T11:53:39.894Z,17.6782
2023-05-14T11:54:47.980Z,17.6507
2023-05-14T11:55:56.135Z,17.3038
2023-05-14T11:57:04.095Z,17.1910
2023-05-14T11:58:12.184Z,17.1771
2023-05-14T11:59:20.363Z,16.9906
2023-05-14T12:00:28.273Z,16.9078
2023-05-14T12:01:36.235Z,17.0453
2023-05-14T12:02:44.302Z,17.2542
2023-05-14T12:03:52.478Z,17.5008
2023-05-14T12:05:00.553Z,17.7478
2023-05-14T12:06:08.589Z,17.5319
2023-05-14T12:07:16.731Z,17.2820
2023-05-14T12:08:24.655Z,17.3247
2023-05-14T12:09:32.696Z,16.9354
2023-05-14T12:10:40.770Z,16.4609
2023-05-14T12:11:48.806Z,15.9596
2023-05-14T12:12:56.916Z,15.4423
2023-05-14T12:14:05.164Z,15.2922
2023-05-14T12:15:13.015Z,14.9024
2023-05-14T12:16:21.005Z,14.7038
2023-05-14T12:17:29.083Z,14.5289
2023-05-14T12:18:37.241Z,14.2731
2023-05-14T12:19:45.275Z,14.0736
2023-05-14T12:20:53.297Z,13.9374
2023-05-14T12:22:01.388Z,13.9594
2023-05-14T12:23:09.602Z,13.6536
2023-05-14T12:24:17.684Z,13.4968
2023-05-14T12:25:25.634Z,13.3576
2023-05-14T12:26:33.799Z,13.3776
2023-05-14T12:27:41.721Z,13.2880
2023-05-14T12:28:49.768Z,13.1985
2023-05-14T12:30:01.985Z,13.0707
2023-05-14T12:31:10.706Z,13.2188
2023-05-14T12:32:18.765Z,13.2117
2023-05-14T12:33:26.816Z,13.2769
2023-05-14T12:34:37.227Z,13.3347
2023-05-14T12:35:47.932Z,13.2847
2023-05-14T12:36:55.957Z,13.1657
2023-05-14T12:38:04.046Z,13.1848
2023-05-14T12:39:12.070Z,13.2311
2023-05-14T12:40:20.273Z,13.3364
2023-05-14T12:41:28.445Z,13.4011
2023-05-14T12:42:36.298Z,13.4488
2023-05-14T12:43:44.421Z,13.5130
2023-05-14T12:44:52.296Z,13.4850
2023-05-14T12:46:00.329Z,13.5935
2023-05-14T12:47:08.521Z,13.5929
2023-05-14T12:48:16.590Z,13.6544
2023-05-14T12:49:24.642Z,13.7566
2023-05-14T12:50:32.805Z,13.7246
2023-05-14T12:51:40.855Z,13.7625
2023-05-14T12:52:48.857Z,13.8501
2023-05-14T12:53:56.968Z,13.8995
2023-05-14T12:55:05.058Z,13.9998
2023-05-14T12:56:13.042Z,14.1907
2023-05-14T12:57:21.105Z,14.2733
2023-05-14T12:58:29.370Z,14.3700
2023-05-14T12:59:37.122Z,14.4711
2023-05-14T13:00:45.187Z,14.4141
2023-05-14T13:01:53.220Z,14.4560
2023-05-14T13:03:01.444Z,14.5743
2023-05-14T13:04:09.539Z,14.5880
2023-05-14T13:05:17.585Z,14.4383
2023-05-14T13:06:25.706Z,14.1022
2023-05-14T13:07:33.649Z,14.0299
2023-05-14T13:08:42.739Z,14.0912
2023-05-14T13:09:49.902Z,14.3317
2023-05-14T13:10:57.839Z,14.2397
2023-05-14T13:12:05.898Z,13.9723
2023-05-14T13:13:13.988Z,14.0454
2023-05-14T13:14:21.905Z,14.0231
2023-05-14T13:15:30.012Z,14.2798
2023-05-14T13:16:38.062Z,14.5136
2023-05-14T13:17:46.252Z,14.6283
2023-05-14T13:18:54.302Z,14.8381
2023-05-14T13:20:02.318Z,15.0290
2023-05-14T13:21:10.523Z,14.9666
2023-05-14T13:22:18.579Z,14.9274
2023-05-14T13:23:26.541Z,15.0099
2023-05-14T13:24:34.599Z,15.2682
2023-05-14T13:25:42.663Z,15.5255
2023-05-14T13:26:50.745Z,15.8446
2023-05-14T13:27:58.785Z,16.0857
2023-05-14T13:29:06.712Z,16.2103
2023-05-14T13:30:14.805Z,16.3661
2023-05-14T13:31:22.962Z,16.3171
2023-05-14T13:32:31.032Z,15.8885
2023-05-14T13:33:39.085Z,15.7988
2023-05-14T13:34:47.126Z,16.1855
2023-05-14T13:35:55.238Z,16.4691
2023-05-14T13:37:03.285Z,16.6943
2023-05-14T13:38:11.562Z,16.5521
2023-05-14T13:39:19.450Z,16.3426
2023-05-14T13:40:27.459Z,16.5379
2023-05-14T13:41:35.541Z,16.5547
2023-05-14T13:42:43.618Z,16.6501
2023-05-14T13:43:51.567Z,16.4685